Time;durP1;ratioP1;P1;durP2;ratioP2;P2;SDS_P1;SDS_P2;PMS_P1;PMS_P2;Temp;Humidity;BMP_temperature;BMP_pressure;BME280_temperature;BME280_humidity;BME280_pressure;Samples;Min_cycle;Max_cycle;Signal;HPM_P1;HPM_P2
2023/04/15 00:00:28;;;;;;;25.08;6.47;;;;;;;15.37;66.70;100133.75;5064643;28;20033;-86
2023/04/15 00:02:54;;;;;;;26.63;5.35;;;;;;;15.45;67.27;100135.59;5090521;28;20029;-85
2023/04/15 00:05:19;;;;;;;29.27;5.95;;;;;;;15.48;67.36;100124.44;5075498;28;20045;-85
2023/04/15 00:07:46;;;;;;;26.35;7.50;;;;;;;15.53;67.15;100124.81;5058015;28;20123;-91
2023/04/15 00:10:13;;;;;;;23.02;6.32;;;;;;;15.59;67.17;100121.44;5069831;28;20020;-91
2023/04/15 00:12:39;;;;;;;22.98;6.65;;;;;;;15.60;67.20;100101.41;5032423;28;20037;-89
2023/04/15 00:15:07;;;;;;;36.45;7.07;;;;;;;15.71;66.36;100114.66;5065837;28;20032;-86
2023/04/15 00:17:32;;;;;;;22.20;6.43;;;;;;;15.78;66.32;100126.47;5081778;28;20087;-89
2023/04/15 00:19:58;;;;;;;36.83;6.70;;;;;;;15.76;65.87;100114.97;5071804;28;20021;-90
2023/04/15 00:22:25;;;;;;;46.10;7.72;;;;;;;15.89;66.06;100123.44;5059421;28;20135;-91
2023/04/15 00:24:52;;;;;;;40.10;8.18;;;;;;;15.92;65.87;100125.81;5068454;28;20025;-92
2023/04/15 00:27:17;;;;;;;22.73;6.88;;;;;;;15.97;65.58;100119.84;5055938;28;20017;-89
2023/04/15 00:29:42;;;;;;;22.00;6.78;;;;;;;15.95;65.44;100117.34;5057581;28;20408;-92
2023/04/15 00:32:08;;;;;;;25.25;5.95;;;;;;;15.97;65.35;100136.97;5055698;28;20416;-93
2023/04/15 00:34:33;;;;;;;24.17;6.55;;;;;;;15.97;65.65;100141.56;5072655;28;20077;-87
2023/04/15 00:36:59;;;;;;;22.75;7.25;;;;;;;16.00;64.92;100147.50;5080598;28;20111;-91
2023/04/15 00:39:24;;;;;;;26.40;7.35;;;;;;;15.94;65.17;100140.03;5077302;28;20041;-90
2023/04/15 00:41:50;;;;;;;25.08;6.57;;;;;;;15.88;64.86;100140.72;5081710;28;20025;-91
2023/04/15 00:44:17;;;;;;;32.65;7.82;;;;;;;15.97;65.23;100146.97;5075054;28;20102;-91
2023/04/15 00:46:44;;;;;;;37.80;8.48;;;;;;;16.01;64.63;100143.78;5045389;28;20048;-88
2023/04/15 00:49:10;;;;;;;36.60;7.78;;;;;;;15.98;64.52;100144.13;5064925;28;20048;-91
2023/04/15 00:51:36;;;;;;;50.13;9.00;;;;;;;15.95;65.31;100141.75;5063617;28;20037;-90
2023/04/15 00:54:03;;;;;;;36.35;8.10;;;;;;;16.01;65.73;100148.34;5073807;28;20103;-86
2023/04/15 00:56:29;;;;;;;26.52;6.75;;;;;;;15.99;64.94;100151.22;5071190;28;20112;-89
2023/04/15 00:58:56;;;;;;;18.73;6.43;;;;;;;16.00;64.69;100152.91;5083413;28;20025;-85
2023/04/15 01:01:23;;;;;;;70.30;11.07;;;;;;;16.07;63.70;100153.09;5085723;28;20029;-85
2023/04/15 01:03:50;;;;;;;39.58;9.20;;;;;;;16.08;63.96;100152.94;5077826;28;20028;-87
2023/04/15 01:06:16;;;;;;;71.43;9.55;;;;;;;16.14;63.78;100159.53;5039195;28;20049;-86
2023/04/15 01:08:42;;;;;;;29.83;8.10;;;;;;;16.13;63.24;100153.25;5038122;28;20090;-89
2023/04/15 01:11:09;;;;;;;34.35;7.72;;;;;;;16.17;63.65;100149.19;5042679;28;20381;-92
2023/04/15 01:13:35;;;;;;;23.38;6.72;;;;;;;16.19;63.98;100151.72;5056190;28;20021;-91
2023/04/15 01:16:01;;;;;;;26.92;7.03;;;;;;;16.23;63.87;100148.50;5054720;28;20028;-92
2023/04/15 01:18:28;;;;;;;49.08;9.45;;;;;;;16.22;63.81;100151.38;5053596;28;20028;-90
2023/04/15 01:20:55;;;;;;;34.33;8.93;;;;;;;16.19;63.69;100139.00;5018119;28;20103;-91
2023/04/15 01:23:22;;;;;;;40.33;8.52;;;;;;;16.22;63.04;100141.34;5052003;28;20036;-90
2023/04/15 01:25:49;;;;;;;22.60;7.70;;;;;;;16.28;62.90;100143.38;5054963;28;20079;-90
2023/04/15 01:28:15;;;;;;;22.88;6.63;;;;;;;16.23;62.75;100140.34;5054084;28;20028;-89
2023/04/15 01:30:40;;;;;;;55.65;7.13;;;;;;;16.26;62.77;100139.16;5057001;28;20025;-89
2023/04/15 01:33:06;;;;;;;26.10;7.45;;;;;;;16.23;63.38;100140.34;5068093;28;20036;-89
2023/04/15 01:35:32;;;;;;;22.80;7.10;;;;;;;16.15;63.61;100134.91;5079374;28;20508;-91
2023/04/15 01:38:06;;;;;;;33.53;6.30;;;;;;;16.16;63.85;100136.63;5071334;28;20148;-91
2023/04/15 01:40:32;;;;;;;35.25;5.97;;;;;;;16.24;64.51;100142.03;5072715;28;20097;-92
2023/04/15 01:42:58;;;;;;;44.03;7.47;;;;;;;16.24;64.70;100136.59;5059040;28;20028;-91
2023/04/15 01:45:23;;;;;;;66.90;10.57;;;;;;;16.26;64.24;100131.00;5064336;28;20028;-89
2023/04/15 01:47:49;;;;;;;46.92;7.97;;;;;;;16.30;64.36;100144.03;5059804;28;20060;-89
2023/04/15 01:50:14;;;;;;;59.25;12.38;;;;;;;16.34;64.23;100142.69;5065388;28;20405;-91
2023/04/15 01:52:40;;;;;;;50.53;8.60;;;;;;;16.27;64.45;100128.09;5057110;28;20033;-90
2023/04/15 01:55:07;;;;;;;59.20;9.23;;;;;;;16.30;64.67;100130.47;5043392;28;20120;-89
2023/04/15 01:57:33;;;;;;;50.00;8.02;;;;;;;16.19;64.59;100130.84;5087091;28;20503;-85
2023/04/15 01:59:59;;;;;;;35.80;7.57;;;;;;;16.22;64.81;100133.22;5082723;28;20070;-85
2023/04/15 02:02:24;;;;;;;29.10;6.03;;;;;;;16.27;64.92;100138.97;5090177;28;20029;-86
2023/04/15 02:04:50;;;;;;;29.50;6.95;;;;;;;16.32;64.56;100141.19;5052968;28;20057;-89
2023/04/15 02:07:15;;;;;;;31.58;6.25;;;;;;;16.34;64.48;100134.53;5040084;28;20028;-91
2023/04/15 02:09:42;;;;;;;43.22;7.13;;;;;;;16.36;64.13;100141.69;5077265;28;20052;-91
2023/04/15 02:12:08;;;;;;;39.15;8.02;;;;;;;16.26;64.57;100125.59;5076027;28;20067;-88
2023/04/15 02:14:33;;;;;;;32.97;7.55;;;;;;;16.26;64.89;100123.72;5062421;28;20029;-86
2023/04/15 02:17:05;;;;;;;42.17;7.32;;;;;;;16.38;64.79;100145.06;5083056;28;20044;-88
2023/04/15 02:19:32;;;;;;;37.55;7.68;;;;;;;16.32;65.26;100139.31;5075665;28;20067;-87
2023/04/15 02:21:57;;;;;;;40.72;9.07;;;;;;;16.22;65.34;100130.50;5096413;28;20036;-86
2023/04/15 02:24:22;;;;;;;111.55;16.90;;;;;;;16.13;65.83;100117.97;5098103;28;20028;-87
2023/04/15 02:26:48;;;;;;;67.70;12.82;;;;;;;16.21;65.38;100126.09;5091062;28;20424;-89
2023/04/15 02:29:13;;;;;;;55.40;10.05;;;;;;;16.32;65.52;100147.44;5048370;28;20036;-91
2023/04/15 02:31:40;;;;;;;53.13;10.38;;;;;;;16.26;65.82;100141.88;5062377;28;20060;-91
2023/04/15 02:34:06;;;;;;;35.30;8.73;;;;;;;16.20;65.91;100140.69;5064137;28;20056;-94
2023/04/15 02:36:33;;;;;;;44.67;7.88;;;;;;;16.25;65.92;100146.44;5082299;28;20087;-91
2023/04/15 02:38:59;;;;;;;72.05;11.57;;;;;;;16.30;65.73;100148.63;5082622;28;20107;-92
2023/04/15 02:41:26;;;;;;;63.70;12.55;;;;;;;16.23;66.29;100137.63;5047339;28;20083;-92
2023/04/15 02:43:52;;;;;;;49.22;8.45;;;;;;;16.29;66.19;100142.38;5053416;28;20086;-91
2023/04/15 02:46:17;;;;;;;75.68;12.52;;;;;;;16.24;66.39;100141.16;5047539;28;20025;-89
2023/04/15 02:48:43;;;;;;;50.17;8.88;;;;;;;16.24;66.30;100138.47;5060759;28;20044;-91
2023/04/15 02:51:18;;;;;;;54.33;10.43;;;;;;;16.31;66.90;100144.91;5072507;28;20036;-91
2023/04/15 02:53:44;;;;;;;56.70;9.65;;;;;;;16.30;66.55;100144.03;5060960;28;20028;-90
2023/04/15 02:56:10;;;;;;;54.45;9.60;;;;;;;16.29;66.76;100141.53;5081441;28;20024;-84
2023/04/15 02:58:36;;;;;;;43.97;12.07;;;;;;;16.31;66.62;100136.75;5095661;28;20128;-88
2023/04/15 03:01:01;;;;;;;37.28;10.68;;;;;;;16.34;66.55;100147.25;5095682;28;20040;-88
2023/04/15 03:03:27;;;;;;;40.72;10.90;;;;;;;16.31;66.68;100134.91;5074856;28;20032;-92
2023/04/15 03:05:53;;;;;;;37.22;8.57;;;;;;;16.43;66.25;100164.38;5038377;28;20107;-93
2023/04/15 03:08:20;;;;;;;28.98;8.82;;;;;;;16.37;66.27;100156.91;5035588;28;20032;-90
2023/04/15 03:10:46;;;;;;;35.85;8.80;;;;;;;16.40;66.28;100159.28;5050281;28;20602;-88
2023/04/15 03:13:11;;;;;;;46.58;9.25;;;;;;;16.38;66.32;100145.06;5034851;28;20029;-89
2023/04/15 03:15:37;;;;;;;25.83;7.78;;;;;;;16.47;66.00;100150.28;5032308;28;20036;-91
2023/04/15 03:18:02;;;;;;;34.28;8.82;;;;;;;16.27;66.43;100141.69;5031574;28;20025;-89
2023/04/15 03:20:28;;;;;;;37.30;8.32;;;;;;;16.30;66.03;100141.34;5033583;28;20107;-90
2023/04/15 03:22:53;;;;;;;26.45;6.57;;;;;;;16.24;65.78;100139.31;5031825;28;20089;-90
2023/04/15 03:25:19;;;;;;;34.95;7.60;;;;;;;16.34;65.67;100155.41;5031913;28;20037;-89
2023/04/15 03:27:44;;;;;;;55.15;9.05;;;;;;;16.29;65.50;100131.50;5031304;28;20513;-90
2023/04/15 03:30:11;;;;;;;30.95;8.63;;;;;;;16.31;65.37;100124.03;5024903;28;20030;-89
2023/04/15 03:32:36;;;;;;;34.03;7.55;;;;;;;16.30;65.21;100127.75;5032595;28;20425;-92
2023/04/15 03:35:02;;;;;;;35.40;7.93;;;;;;;16.37;65.33;100143.34;5025865;28;20049;-91
2023/04/15 03:37:28;;;;;;;43.97;9.15;;;;;;;16.32;65.50;100131.16;5012001;28;20104;-91
2023/04/15 03:39:53;;;;;;;39.53;9.05;;;;;;;16.36;65.44;100133.53;5012673;28;20022;-89
2023/04/15 03:42:18;;;;;;;48.88;9.60;;;;;;;16.35;65.41;100140.81;5012418;28;20656;-86
2023/04/15 03:44:44;;;;;;;42.45;8.80;;;;;;;16.40;65.53;100152.00;5013572;28;20038;-90
2023/04/15 03:47:09;;;;;;;54.60;10.85;;;;;;;16.41;65.27;100139.28;5023094;28;20102;-90
2023/04/15 03:49:36;;;;;;;39.97;8.60;;;;;;;16.37;65.79;100137.91;5050630;28;20464;-89
2023/04/15 03:52:01;;;;;;;38.33;8.73;;;;;;;16.46;66.14;100147.72;5043386;28;20061;-90
2023/04/15 03:54:26;;;;;;;44.70;8.45;;;;;;;16.41;66.40;100151.00;5037929;28;20030;-89
2023/04/15 03:56:52;;;;;;;50.25;9.40;;;;;;;16.41;66.38;100147.41;5049301;28;20029;-85
2023/04/15 03:59:17;;;;;;;53.13;8.52;;;;;;;16.20;66.37;100140.69;5039116;28;20044;-85
2023/04/15 04:01:43;;;;;;;60.60;9.80;;;;;;;16.36;65.64;100152.53;5026558;28;20600;-89
2023/04/15 04:04:08;;;;;;;54.97;8.30;;;;;;;16.36;65.66;100152.53;5014029;28;20084;-88
2023/04/15 04:06:34;;;;;;;31.63;7.57;;;;;;;16.46;65.69;100161.31;5049497;28;20049;-90
2023/04/15 04:09:00;;;;;;;44.78;8.55;;;;;;;16.44;65.92;100153.34;5035648;28;20051;-86
2023/04/15 04:11:27;;;;;;;61.03;9.02;;;;;;;16.54;65.66;100161.31;5070840;28;20025;-87
2023/04/15 04:13:52;;;;;;;43.20;8.80;;;;;;;16.53;65.74;100152.31;5070565;28;20036;-91
2023/04/15 04:16:18;;;;;;;38.22;9.13;;;;;;;16.58;65.54;100157.22;5076641;28;20091;-90
2023/04/15 04:18:43;;;;;;;49.65;9.55;;;;;;;16.62;65.69;100158.59;5076444;28;20059;-86
2023/04/15 04:21:09;;;;;;;42.40;8.25;;;;;;;16.64;65.52;100156.53;5069227;28;20035;-88
2023/04/15 04:23:34;;;;;;;40.70;7.93;;;;;;;16.70;65.03;100166.69;5075729;28;20024;-90
2023/04/15 04:26:00;;;;;;;23.63;6.82;;;;;;;16.47;63.69;100171.16;5073675;28;20466;-91
2023/04/15 04:28:25;;;;;;;23.88;6.72;;;;;;;16.35;63.51;100167.97;5074541;28;20028;-90
2023/04/15 04:30:51;;;;;;;56.38;9.98;;;;;;;16.28;63.37;100178.66;5028597;28;20102;-92
2023/04/15 04:33:16;;;;;;;46.47;8.35;;;;;;;16.15;63.94;100178.34;5069706;28;20032;-90
2023/04/15 04:35:42;;;;;;;39.40;9.57;;;;;;;16.00;64.38;100185.47;5076513;28;20028;-88
2023/04/15 04:38:07;;;;;;;48.20;14.00;;;;;;;15.90;65.03;100176.66;5093887;28;20054;-88
2023/04/15 04:40:33;;;;;;;37.90;9.63;;;;;;;15.87;65.48;100187.00;5087033;28;20092;-89
2023/04/15 04:42:59;;;;;;;33.47;8.70;;;;;;;15.80;65.66;100159.72;5047074;28;20103;-90
2023/04/15 04:45:24;;;;;;;28.63;7.45;;;;;;;15.88;65.43;100173.25;5037314;28;20025;-90
2023/04/15 04:47:50;;;;;;;39.42;7.88;;;;;;;15.79;66.03;100168.88;5054705;28;20029;-92
2023/04/15 04:50:15;;;;;;;20.60;6.50;;;;;;;15.92;65.59;100182.75;5064054;28;20024;-93
2023/04/15 04:52:41;;;;;;;25.13;6.97;;;;;;;15.94;65.65;100178.00;5066555;28;20043;-90
2023/04/15 04:55:07;;;;;;;24.88;7.20;;;;;;;15.87;65.70;100179.69;5088869;28;20028;-84
2023/04/15 04:57:34;;;;;;;29.85;5.68;;;;;;;15.84;65.57;100181.94;5090651;28;20029;-86
2023/04/15 05:00:00;;;;;;;14.70;5.85;;;;;;;15.83;65.59;100181.06;5062717;28;20033;-90
2023/04/15 05:02:26;;;;;;;38.50;6.97;;;;;;;15.81;66.04;100172.25;5049276;28;20193;-95
2023/04/15 05:04:53;;;;;;;23.20;6.55;;;;;;;15.73;66.47;100183.09;5056485;28;20053;-90
2023/04/15 05:07:19;;;;;;;28.08;7.63;;;;;;;15.69;66.87;100174.44;5055181;28;20067;-89
2023/04/15 05:09:45;;;;;;;37.10;11.02;;;;;;;15.74;67.03;100182.09;5061532;28;20028;-82
2023/04/15 05:12:13;;;;;;;32.15;8.27;;;;;;;15.81;66.72;100174.94;5036287;28;20040;-85
2023/04/15 05:14:40;;;;;;;43.13;8.57;;;;;;;15.82;67.08;100178.53;5054892;28;20476;-85
2023/04/15 05:17:07;;;;;;;29.52;7.15;;;;;;;15.78;67.29;100176.16;5055051;28;20028;-88
2023/04/15 05:19:32;;;;;;;33.95;8.32;;;;;;;15.87;67.13;100182.41;5067155;28;20032;-88
2023/04/15 05:21:58;;;;;;;53.45;9.10;;;;;;;15.87;66.91;100182.41;5078300;28;20055;-88
2023/04/15 05:24:23;;;;;;;33.78;7.50;;;;;;;15.93;66.92;100184.44;5058062;28;20097;-87
2023/04/15 05:26:48;;;;;;;43.55;8.45;;;;;;;15.98;66.76;100176.66;5071365;28;20060;-88
2023/04/15 05:29:14;;;;;;;29.77;6.97;;;;;;;15.94;66.83;100180.72;5057613;28;20446;-89
2023/04/15 05:31:40;;;;;;;34.92;7.68;;;;;;;15.98;67.16;100184.81;5068886;28;20484;-89
2023/04/15 05:34:06;;;;;;;125.40;13.23;;;;;;;15.95;67.13;100177.00;5071627;28;20029;-88
2023/04/15 05:36:31;;;;;;;109.93;12.55;;;;;;;15.92;67.29;100171.91;5070785;28;20036;-89
2023/04/15 05:38:57;;;;;;;38.72;8.25;;;;;;;16.00;67.15;100179.19;5071352;28;20036;-89
2023/04/15 05:41:22;;;;;;;37.28;9.05;;;;;;;15.93;67.19;100168.16;5060141;28;20518;-88
2023/04/15 05:43:48;;;;;;;33.88;8.38;;;;;;;16.15;66.46;100177.47;5072253;28;20037;-91
2023/04/15 05:46:13;;;;;;;46.95;8.23;;;;;;;16.19;66.15;100181.56;5088706;28;20024;-83
2023/04/15 05:48:39;;;;;;;45.63;8.63;;;;;;;16.20;66.08;100175.97;5061658;28;20033;-82
2023/04/15 05:51:05;;;;;;;34.20;7.25;;;;;;;16.19;65.85;100174.25;5068000;28;20257;-82
2023/04/15 05:53:30;;;;;;;45.97;8.18;;;;;;;16.11;65.73;100201.41;5090638;28;20029;-78
2023/04/15 05:55:56;;;;;;;23.58;6.47;;;;;;;16.11;66.30;100219.56;5080673;28;20064;-82
2023/04/15 05:58:22;;;;;;;29.83;7.60;;;;;;;16.02;66.68;100226.84;5038859;28;20032;-89
2023/04/15 06:00:47;;;;;;;21.50;7.43;;;;;;;15.97;66.81;100245.47;5070824;28;20029;-86
2023/04/15 06:03:13;;;;;;;33.75;8.82;;;;;;;15.93;67.16;100241.41;5057709;28;20059;-83
2023/04/15 06:05:39;;;;;;;26.92;8.77;;;;;;;16.05;67.28;100248.22;5059833;28;20053;-89
2023/04/15 06:08:05;;;;;;;31.30;9.05;;;;;;;16.09;67.00;100249.56;5054073;28;20037;-83
2023/04/15 06:10:35;;;;;;;35.13;8.90;;;;;;;16.09;67.51;100260.41;5052559;28;20032;-87
2023/04/15 06:13:01;;;;;;;41.65;10.32;;;;;;;16.08;67.94;100261.44;5066278;28;20020;-88
2023/04/15 06:15:26;;;;;;;34.80;10.25;;;;;;;16.09;68.59;100273.13;5060194;28;20032;-84
2023/04/15 06:17:51;;;;;;;31.50;11.55;;;;;;;16.05;69.07;100269.91;5050946;28;20404;-83
2023/04/15 06:20:17;;;;;;;37.90;12.80;;;;;;;16.05;69.40;100269.06;5056131;28;20021;-85
2023/04/15 06:22:43;;;;;;;23.60;12.10;;;;;;;15.88;70.14;100279.03;5069233;28;20024;-87
2023/04/15 06:25:08;;;;;;;27.70;12.48;;;;;;;15.81;71.51;100272.56;5074165;28;20040;-82
2023/04/15 06:27:34;;;;;;;39.58;14.50;;;;;;;15.89;71.97;100283.47;5074405;28;20024;-90
2023/04/15 06:29:59;;;;;;;29.25;14.35;;;;;;;15.85;72.44;100281.22;5079582;28;20060;-83
2023/04/15 06:32:25;;;;;;;33.15;14.90;;;;;;;15.93;73.22;100294.81;5088231;28;20033;-81
2023/04/15 06:34:50;;;;;;;43.85;15.88;;;;;;;15.81;73.40;100294.28;5080225;28;20012;-80
2023/04/15 06:37:16;;;;;;;42.15;15.88;;;;;;;15.86;73.62;100281.06;5082275;28;20108;-83
2023/04/15 06:39:43;;;;;;;31.98;14.25;;;;;;;15.97;73.33;100288.03;5074407;28;20573;-79
2023/04/15 06:42:09;;;;;;;34.38;14.75;;;;;;;16.00;73.19;100283.13;5072466;28;20024;-81
2023/04/15 06:44:36;;;;;;;33.63;14.75;;;;;;;15.97;73.09;100271.75;5056332;28;20492;-82
2023/04/15 06:47:01;;;;;;;36.20;15.82;;;;;;;16.03;73.11;100271.94;5060706;28;20025;-82
2023/04/15 06:49:27;;;;;;;43.33;16.90;;;;;;;16.05;73.72;100267.22;5067133;28;20035;-80
2023/04/15 06:51:52;;;;;;;29.33;16.20;;;;;;;16.14;73.92;100268.91;5077308;28;20036;-82
2023/04/15 06:54:18;;;;;;;39.22;16.70;;;;;;;16.18;73.54;100275.66;5053521;28;20179;-80
2023/04/15 06:56:43;;;;;;;37.53;17.55;;;;;;;16.19;73.25;100261.09;5060948;28;20033;-82
2023/04/15 06:59:09;;;;;;;43.92;16.88;;;;;;;16.27;72.73;100273.78;5067704;28;20189;-80
2023/04/15 07:01:34;;;;;;;32.67;15.70;;;;;;;16.30;72.96;100268.88;5068716;28;20460;-81
2023/04/15 07:04:00;;;;;;;41.45;17.33;;;;;;;16.32;73.05;100261.44;5043507;28;20497;-81
2023/04/15 07:06:26;;;;;;;41.08;16.85;;;;;;;16.47;73.10;100272.44;5052006;28;20053;-79
2023/04/15 07:08:52;;;;;;;29.23;13.05;;;;;;;16.63;72.17;100275.19;5060518;28;20366;-80
2023/04/15 07:11:17;;;;;;;39.17;15.52;;;;;;;16.77;72.06;100284.47;5063945;28;20040;-84
2023/04/15 07:13:43;;;;;;;32.70;13.98;;;;;;;16.92;71.77;100298.19;5049350;28;20116;-84
2023/04/15 07:16:08;;;;;;;29.15;11.30;;;;;;;17.03;71.22;100312.25;5064931;28;20044;-80
2023/04/15 07:18:34;;;;;;;21.85;10.80;;;;;;;16.90;69.37;100314.69;5055879;28;20444;-80
2023/04/15 07:20:59;;;;;;;24.40;11.15;;;;;;;16.95;69.45;100300.56;5049444;28;20040;-84
2023/04/15 07:23:25;;;;;;;23.77;10.20;;;;;;;17.12;69.20;100296.78;5064843;28;20169;-84
2023/04/15 07:25:51;;;;;;;28.15;9.07;;;;;;;17.25;68.11;100308.78;5013580;28;20428;-81
2023/04/15 07:28:16;;;;;;;17.35;8.93;;;;;;;17.31;67.55;100308.09;5040509;28;20619;-80
2023/04/15 07:30:42;;;;;;;23.98;10.55;;;;;;;17.34;67.67;100315.88;5034261;28;20116;-80
2023/04/15 07:33:07;;;;;;;24.67;9.00;;;;;;;17.40;67.29;100317.91;5044638;28;20037;-84
2023/04/15 07:35:33;;;;;;;25.33;8.38;;;;;;;17.41;67.19;100294.28;5035262;28;20033;-85
2023/04/15 07:37:58;;;;;;;17.83;6.65;;;;;;;17.46;66.68;100299.22;5055857;28;20915;-82
2023/04/15 07:40:23;;;;;;;17.27;6.07;;;;;;;17.53;65.50;100301.03;5030354;28;20024;-81
2023/04/15 07:42:50;;;;;;;19.60;6.90;;;;;;;17.58;65.98;100303.25;5028691;28;20037;-85
2023/04/15 07:45:15;;;;;;;18.00;7.97;;;;;;;17.65;65.81;100296.06;5035144;28;20055;-87
2023/04/15 07:47:41;;;;;;;21.88;6.55;;;;;;;17.87;65.70;100308.84;5051102;28;20080;-81
2023/04/15 07:50:09;;;;;;;17.95;7.30;;;;;;;18.01;65.21;100288.22;5054252;28;20442;-84
2023/04/15 07:52:38;;;;;;;19.75;6.68;;;;;;;18.29;64.63;100295.63;5046095;28;20068;-85
2023/04/15 07:55:07;;;;;;;22.50;6.80;;;;;;;18.37;62.81;100303.75;5012965;28;20034;-86
2023/04/15 07:57:34;;;;;;;17.60;6.60;;;;;;;18.42;62.34;100293.13;5035788;28;20037;-85
2023/04/15 08:00:00;;;;;;;26.75;6.32;;;;;;;18.64;62.37;100304.22;5051794;28;20105;-88
2023/04/15 08:02:25;;;;;;;17.83;5.15;;;;;;;18.68;61.16;100300.94;5060257;28;20060;-81
2023/04/15 08:04:52;;;;;;;23.70;6.75;;;;;;;18.61;61.03;100263.72;5058918;28;20137;-82
2023/04/15 08:07:17;;;;;;;15.45;4.50;;;;;;;18.92;59.05;100289.81;5065958;28;20025;-80
2023/04/15 08:09:43;;;;;;;25.60;6.95;;;;;;;19.04;58.71;100303.81;5053810;28;20036;-82
2023/04/15 08:12:11;;;;;;;40.70;9.10;;;;;;;19.09;58.71;100301.34;5052144;28;20032;-84
2023/04/15 08:14:37;;;;;;;23.13;6.38;;;;;;;19.13;58.57;100316.31;5037865;28;20105;-85
2023/04/15 08:17:03;;;;;;;15.98;5.25;;;;;;;19.06;57.35;100307.19;5049878;28;20107;-81
2023/04/15 08:19:29;;;;;;;22.70;4.85;;;;;;;18.96;57.49;100306.59;5047620;28;20061;-82
2023/04/15 08:21:55;;;;;;;34.85;6.35;;;;;;;18.87;57.73;100302.28;5046715;28;20106;-81
2023/04/15 08:24:20;;;;;;;54.33;7.57;;;;;;;18.75;58.52;100298.31;5051881;28;20028;-80
2023/04/15 08:26:46;;;;;;;43.05;7.95;;;;;;;18.80;58.70;100295.91;5067546;28;20043;-80
2023/04/15 08:29:12;;;;;;;38.08;7.90;;;;;;;18.82;58.64;100288.38;5067485;28;20028;-80
2023/04/15 08:31:37;;;;;;;62.15;8.43;;;;;;;18.93;58.55;100274.28;5067470;28;20054;-83
2023/04/15 08:34:03;;;;;;;40.08;8.77;;;;;;;19.23;58.15;100289.63;5071713;28;20130;-89
2023/04/15 08:36:29;;;;;;;43.70;6.82;;;;;;;19.23;57.78;100275.13;5074201;28;20029;-86
2023/04/15 08:38:55;;;;;;;31.65;6.55;;;;;;;19.21;57.20;100293.53;5078004;28;20047;-86
2023/04/15 08:41:22;;;;;;;43.35;6.38;;;;;;;19.13;56.73;100278.16;5076680;28;20383;-85
2023/04/15 08:43:53;;;;;;;28.70;5.90;;;;;;;18.97;57.17;100283.78;5096000;28;20044;-81
2023/04/15 08:46:20;;;;;;;23.63;4.40;;;;;;;18.85;57.70;100282.53;5093410;28;20035;-84
2023/04/15 08:48:46;;;;;;;21.25;5.00;;;;;;;18.75;58.68;100301.03;5074743;28;20123;-86
2023/04/15 08:51:15;;;;;;;6.75;3.78;;;;;;;18.76;59.01;100309.03;5071086;28;20104;-80
2023/04/15 08:53:42;;;;;;;33.97;4.15;;;;;;;18.74;59.22;100292.03;5053407;28;20028;-85
2023/04/15 08:56:09;;;;;;;88.38;9.07;;;;;;;18.87;58.94;100291.38;5075575;28;20050;-85
2023/04/15 08:58:35;;;;;;;21.73;3.15;;;;;;;19.00;58.53;100307.94;5071863;28;20820;-83
2023/04/15 09:01:01;;;;;;;16.05;3.92;;;;;;;18.81;58.60;100316.63;5052721;28;20048;-83
2023/04/15 09:03:27;;;;;;;8.60;3.55;;;;;;;18.83;58.94;100317.31;5070735;28;20056;-81
2023/04/15 09:05:53;;;;;;;34.30;5.05;;;;;;;18.93;57.99;100307.81;5070709;28;20056;-83
2023/04/15 09:08:22;;;;;;;33.70;4.60;;;;;;;18.96;57.67;100291.09;5071424;28;20037;-82
2023/04/15 09:10:47;;;;;;;15.10;3.72;;;;;;;19.04;57.47;100287.44;5070930;28;20044;-82
2023/04/15 09:13:13;;;;;;;22.13;4.57;;;;;;;19.11;58.06;100303.91;5070981;28;20024;-84
2023/04/15 09:15:39;;;;;;;19.88;4.22;;;;;;;19.09;58.26;100298.63;5070811;28;20036;-82
2023/04/15 09:18:05;;;;;;;23.55;5.78;;;;;;;19.14;58.89;100298.94;5070627;28;20032;-81
2023/04/15 09:20:41;;;;;;;23.65;5.00;;;;;;;19.20;58.11;100306.34;5070266;28;20119;-83
2023/04/15 09:23:14;;;;;;;11.02;3.75;;;;;;;19.32;58.11;100323.94;5070301;28;20024;-83
2023/04/15 09:25:43;;;;;;;21.25;4.57;;;;;;;19.49;58.08;100303.63;5070531;28;20029;-83
2023/04/15 09:28:10;;;;;;;14.75;4.35;;;;;;;19.83;57.33;100310.34;5070122;28;20032;-84
2023/04/15 09:30:35;;;;;;;27.88;4.90;;;;;;;20.04;56.53;100302.19;5070608;28;20032;-83
2023/04/15 09:33:06;;;;;;;19.40;4.45;;;;;;;20.22;55.23;100309.91;5071406;28;20047;-83
2023/04/15 09:35:34;;;;;;;12.35;4.03;;;;;;;20.41;54.75;100299.22;5071429;28;20117;-82
2023/04/15 09:38:05;;;;;;;6.85;3.45;;;;;;;20.50;53.39;100308.97;5072300;28;20031;-83
2023/04/15 09:40:34;;;;;;;24.65;4.05;;;;;;;20.64;53.65;100304.44;5083611;28;20135;-83
2023/04/15 09:43:13;;;;;;;17.13;5.22;;;;;;;20.70;52.89;100281.81;5078563;28;20090;-83
2023/04/15 09:45:45;;;;;;;10.20;4.55;;;;;;;20.83;52.39;100298.31;5033767;28;20048;-83
2023/04/15 09:48:17;;;;;;;10.75;3.17;;;;;;;20.83;52.38;100305.66;5070321;28;20036;-83
2023/04/15 09:50:42;;;;;;;16.38;3.65;;;;;;;20.82;52.16;100299.38;5069768;28;20036;-82
2023/04/15 09:53:10;;;;;;;44.80;6.63;;;;;;;20.75;52.42;100306.66;5070598;28;20476;-84
2023/04/15 09:55:35;;;;;;;8.75;2.85;;;;;;;20.89;51.79;100313.91;5070425;28;20043;-83
2023/04/15 09:58:01;;;;;;;14.55;3.47;;;;;;;21.10;51.49;100313.88;5070190;28;20107;-85
2023/04/15 10:00:28;;;;;;;17.20;3.20;;;;;;;21.33;51.07;100315.50;5075939;28;20025;-85
2023/04/15 10:02:54;;;;;;;7.30;3.08;;;;;;;21.55;50.66;100317.94;5077055;28;20097;-86
2023/04/15 10:05:19;;;;;;;12.05;3.20;;;;;;;21.55;50.10;100315.22;5073406;28;20060;-87
2023/04/15 10:07:45;;;;;;;14.88;3.97;;;;;;;21.56;49.88;100305.09;5073384;28;20024;-85
2023/04/15 10:10:12;;;;;;;13.95;3.33;;;;;;;21.50;49.34;100301.28;5071047;28;20032;-87
2023/04/15 10:12:40;;;;;;;11.02;2.75;;;;;;;21.62;48.96;100299.63;5070844;28;20111;-86
2023/04/15 10:15:12;;;;;;;8.18;2.67;;;;;;;21.69;49.11;100302.41;5071697;28;20028;-86
2023/04/15 10:17:42;;;;;;;9.60;3.30;;;;;;;21.79;48.89;100307.50;5074658;28;20510;-85
2023/04/15 10:20:11;;;;;;;15.90;3.65;;;;;;;21.90;48.60;100296.81;5074270;28;20036;-84
2023/04/15 10:22:37;;;;;;;10.05;2.42;;;;;;;21.97;47.86;100294.97;5075196;28;20480;-85
2023/04/15 10:25:03;;;;;;;19.50;3.88;;;;;;;21.90;48.62;100305.03;5075283;28;20024;-86
2023/04/15 10:27:29;;;;;;;8.57;2.70;;;;;;;22.02;48.29;100297.91;5072082;28;20120;-86
2023/04/15 10:29:56;;;;;;;13.82;3.10;;;;;;;22.13;48.21;100304.69;5076723;28;20051;-87
2023/04/15 10:32:24;;;;;;;10.20;2.92;;;;;;;22.09;48.44;100298.78;5079816;28;20047;-89
2023/04/15 10:34:51;;;;;;;8.95;3.13;;;;;;;22.23;47.37;100299.66;5083984;28;20037;-81
2023/04/15 10:37:21;;;;;;;10.82;3.38;;;;;;;22.34;47.75;100276.28;5095599;28;20044;-82
2023/04/15 10:39:47;;;;;;;12.38;3.17;;;;;;;22.60;47.86;100293.56;5089095;28;20062;-85
2023/04/15 10:42:18;;;;;;;11.10;3.15;;;;;;;22.76;47.32;100284.09;5070274;28;20044;-83
2023/04/15 10:44:48;;;;;;;9.23;3.25;;;;;;;22.99;46.92;100286.41;5070315;28;20786;-80
2023/04/15 10:47:19;;;;;;;10.95;3.20;;;;;;;23.03;46.22;100290.38;5071427;28;20543;-86
2023/04/15 10:49:50;;;;;;;14.57;3.28;;;;;;;22.92;46.61;100291.91;5068927;28;20199;-80
2023/04/15 10:52:21;;;;;;;21.48;3.08;;;;;;;22.91;46.68;100278.38;5070644;28;20032;-84
2023/04/15 10:54:47;;;;;;;6.00;2.38;;;;;;;22.90;45.83;100283.06;5072256;28;20500;-83
2023/04/15 10:57:21;;;;;;;18.98;3.05;;;;;;;22.84;45.78;100285.81;5070015;28;20043;-84
2023/04/15 11:00:12;;;;;;;11.35;3.45;;;;;;;22.60;46.39;100271.63;5070663;28;20031;-84
2023/04/15 11:02:46;;;;;;;16.30;3.10;;;;;;;22.64;46.76;100280.28;5084707;28;20062;-82
2023/04/15 11:05:16;;;;;;;8.88;2.47;;;;;;;22.66;45.93;100286.41;5089880;28;20065;-83
2023/04/15 11:07:54;;;;;;;10.65;3.03;;;;;;;22.54;45.91;100280.69;5091834;28;20016;-83
2023/04/15 11:10:20;;;;;;;13.98;3.28;;;;;;;22.42;46.42;100287.88;5093621;28;20131;-86
2023/04/15 11:12:49;;;;;;;11.18;3.47;;;;;;;22.47;46.18;100284.50;5089677;28;20028;-87